CheckWX is a tool to help pilots better visualize weather data.  It is not intended as a substitute for an official pre-flight weather briefing.

02:10:29 UTC

VOTR TAF
Tiruchirapally Civil Airport
Tiruchirappally, India
TAF VOTR 222300Z 2300/2406 27005KT 6000 FEW018 SCT100 TEMPO 2309/2315 FEW018 FEW025TCU/CB SCT100 BECMG 2312/2314 16005KT BECMG 2400/2401 27005KT

Apr-23@
00:00 UTC

Apr-23 @ 00:00 UTC

Apr-23@
12:00 UTC

Apr-23 @ 12:00 UTC

TAF VOTR 222300Z 2300/2406 27005KT 6000 FEW018 SCT100
Wind
  • 270° at 5 KTS
Cloud Levels
  • Few at 1,800' AGL
  • Scattered at 10,000' AGL

Apr-23@
09:00 UTC

Apr-23 @ 09:00 UTC

Apr-23@
15:00 UTC

Apr-23 @ 15:00 UTC

TEMPO 2309/2315 FEW018 FEW025TCU/CB SCT100

Temporary

Temporary Changes expected for less than half the time period

Cloud Levels
  • Few at 1,800' AGL
  • Scattered at 10,000' AGL

Apr-23@
12:00 UTC

Apr-23 @ 12:00 UTC

Apr-24@
00:00 UTC

Apr-24 @ 00:00 UTC

BECMG 2312/2314 16005KT

Becoming

Becoming Conditions expected by Tue, Apr 23, 2019 @ 14:00 UTC

Wind
  • 160° at 5 KTS
Cloud Levels
  • Few at 1,800' AGL
  • Scattered at 10,000' AGL

Apr-24@
00:00 UTC

Apr-24 @ 00:00 UTC

Apr-24@
06:00 UTC

Apr-24 @ 06:00 UTC

BECMG 2400/2401 27005KT

Becoming

Becoming Conditions expected by Wed, Apr 24, 2019 @ 01:00 UTC

Wind
  • 270° at 5 KTS
Cloud Levels
  • Few at 1,800' AGL
  • Scattered at 10,000' AGL